Shin-oh Maru — JG5594 — position and weather

sailwx.info

Track history (hours):
 
Tides and Currents Weather Stations Pressure Air Temp Water Temp Dewpoint Dewpoint Depression Visibility Wind Speed Wind Dir Waves Ship Positions

Shin-oh Maru

Last reported at 2015-Jul-04 20:26 UTC. Time now 2015-Jul-07 15:23 UTC.
Position N 35°36' E 140°59'.

Length 161 m; draft 7 m.

Type: Ship (hazmat cat A). MMSI: 431100859.

Date/timePositionNaut miles runAvg speedWind from/ knotsBaromVisibWave heightAir tempDewpointWater temp
2015-Jul-04 20:26N 35°36' E 140°59'1618.7
2015-Jul-04 19:33N 35°24' E 140°46'2119.4
2015-Jul-04 18:29N 35°07' E 140°30'1920.3
2015-Jul-04 17:33N 34°57' E 140°11'1918.5
2015-Jul-04 16:32N 34°51' E 139°49'1717.7
2015-Jul-04 15:33N 35°08' E 139°44'1413.6
2015-Jul-04 14:33N 35°22' E 139°42'1414.2
2015-Jul-04 13:33N 35°35' E 139°47'3 2.5
2015-Jul-04 12:33N 35°38' E 139°46'0 0.0
2015-Jul-04 11:33N 35°38' E 139°46'0 0.0
2015-Jul-04 10:33N 35°38' E 139°46'0 0.0
2015-Jul-04 09:33N 35°38' E 139°46'0 0.0
2015-Jul-04 08:34N 35°38' E 139°46'9 8.9
2015-Jul-04 07:33N 35°31' E 139°52'1414.4
2015-Jul-04 06:34N 35°17' E 139°45'1515.4
2015-Jul-04 05:33N 35°02' E 139°44'1412.6
2015-Jul-04 04:24N 34°52' E 139°56'1415.9
2015-Jul-04 03:33N 34°58' E 140°11'1615.4
2015-Jul-04 02:33N 35°05' E 140°28'1817.1
2015-Jul-04 01:29N 35°20' E 140°41'1617.1
2015-Jul-04 00:33N 35°33' E 140°53'1716.9
2015-Jul-03 23:33N 35°47' E 141°03'1817.8
2015-Jul-03 22:33N 36°04' E 141°09'37 0.7
2015-Jul-01 20:21N 35°30' E 140°53'1718.5
2015-Jul-01 19:25N 35°17' E 140°40'1618.9
2015-Jul-01 18:33N 35°05' E 140°26'1818.3
2015-Jul-01 17:33N 34°55' E 140°07'1817.8
2015-Jul-01 16:34N 34°52' E 139°46'1616.2
2015-Jul-01 15:33N 35°08' E 139°45'1312.9
2015-Jul-01 14:33N 35°21' E 139°42'1414.2
2015-Jul-01 13:33N 35°34' E 139°49'5 4.5
2015-Jul-01 12:27N 35°38' E 139°46'0 0.0
2015-Jul-01 11:15N 35°38' E 139°46'0 0.0
2015-Jul-01 10:18N 35°38' E 139°46'0 0.0
2015-Jul-01 09:33N 35°38' E 139°46'0 0.0
2015-Jul-01 08:24N 35°38' E 139°46'0 0.6
2015-Jul-01 07:33N 35°37' E 139°46'1111.0
2015-Jul-01 06:33N 35°27' E 139°49'1211.9
2015-Jul-01 05:33N 35°15' E 139°47'1515.1
2015-Jul-01 04:33N 35°00' E 139°43'1413.5
2015-Jul-01 03:29N 34°50' E 139°56'1414.7
2015-Jul-01 02:32N 34°57' E 140°11'1715.4
2015-Jul-01 01:28N 35°06' E 140°28'1916.3
2015-Jul-01 00:18N 35°21' E 140°42'1817.5
2015-Jun-30 23:15N 35°36' E 140°55'1418.2
2015-Jun-30 22:28N 35°49' E 141°03'1818.6
2015-Jun-30 21:29N 36°06' E 141°08'  
2015-Jun-27 21:28N 35°50' E 141°04'1719.3
2015-Jun-27 20:33N 35°34' E 140°57'2019.6
2015-Jun-27 19:33N 35°19' E 140°42'2019.9
2015-Jun-27 18:33N 35°04' E 140°25'2019.7
2015-Jun-27 17:33N 34°53' E 140°05'1817.7
2015-Jun-27 16:33N 34°55' E 139°44'1818.2
2015-Jun-27 15:33N 35°13' E 139°46'1313.1
2015-Jun-27 14:34N 35°26' E 139°46'1111.4
2015-Jun-27 13:33N 35°38' E 139°46'0 0.1
2015-Jun-27 12:31N 35°38' E 139°46'0 0.0
2015-Jun-27 11:25N 35°38' E 139°46'0 0.0
2015-Jun-27 10:22N 35°38' E 139°46'0 0.0
2015-Jun-27 09:31N 35°38' E 139°46'0 0.4
2015-Jun-27 08:33N 35°37' E 139°46'1111.0
2015-Jun-27 07:33N 35°27' E 139°49'1212.0
2015-Jun-27 06:33N 35°15' E 139°47'1413.7
2015-Jun-27 05:33N 35°01' E 139°44'1514.1
2015-Jun-27 04:31N 34°51' E 139°56'1717.8
2015-Jun-27 03:34N 34°59' E 140°15'1817.4
2015-Jun-27 02:30N 35°11' E 140°32'1717.2
2015-Jun-27 01:29N 35°24' E 140°45'  
2015-Jun-24 21:27N 35°50' E 141°08'1718.8
2015-Jun-24 20:32N 35°35' E 140°58'  
Track history (hours):
 
Tides and Currents Weather Stations Pressure Air Temp Water Temp Dewpoint Dewpoint Depression Visibility Wind Speed Wind Dir Waves Ship Positions

Shin-oh Maru

Last reported at 2015-Jul-04 20:26 UTC. Time now 2015-Jul-07 15:23 UTC.
Position N 35°36' E 140°59'.

Length 161 m; draft 7 m.

Type: Ship (hazmat cat A). MMSI: 431100859.

Date/timePositionNaut miles runAvg speedWind from/ knotsBaromVisibWave heightAir tempDewpointWater temp
2015-Jul-04 20:26N 35°36' E 140°59'1618.7
2015-Jul-04 19:33N 35°24' E 140°46'2119.4
2015-Jul-04 18:29N 35°07' E 140°30'1920.3
2015-Jul-04 17:33N 34°57' E 140°11'1918.5
2015-Jul-04 16:32N 34°51' E 139°49'1717.7
2015-Jul-04 15:33N 35°08' E 139°44'1413.6
2015-Jul-04 14:33N 35°22' E 139°42'1414.2
2015-Jul-04 13:33N 35°35' E 139°47'3 2.5
2015-Jul-04 12:33N 35°38' E 139°46'0 0.0
2015-Jul-04 11:33N 35°38' E 139°46'0 0.0
2015-Jul-04 10:33N 35°38' E 139°46'0 0.0
2015-Jul-04 09:33N 35°38' E 139°46'0 0.0
2015-Jul-04 08:34N 35°38' E 139°46'9 8.9
2015-Jul-04 07:33N 35°31' E 139°52'1414.4
2015-Jul-04 06:34N 35°17' E 139°45'1515.4
2015-Jul-04 05:33N 35°02' E 139°44'1412.6
2015-Jul-04 04:24N 34°52' E 139°56'1415.9
2015-Jul-04 03:33N 34°58' E 140°11'1615.4
2015-Jul-04 02:33N 35°05' E 140°28'1817.1
2015-Jul-04 01:29N 35°20' E 140°41'1617.1
2015-Jul-04 00:33N 35°33' E 140°53'1716.9
2015-Jul-03 23:33N 35°47' E 141°03'1817.8
2015-Jul-03 22:33N 36°04' E 141°09'37 0.7
2015-Jul-01 20:21N 35°30' E 140°53'1718.5
2015-Jul-01 19:25N 35°17' E 140°40'1618.9
2015-Jul-01 18:33N 35°05' E 140°26'1818.3
2015-Jul-01 17:33N 34°55' E 140°07'1817.8
2015-Jul-01 16:34N 34°52' E 139°46'1616.2
2015-Jul-01 15:33N 35°08' E 139°45'1312.9
2015-Jul-01 14:33N 35°21' E 139°42'1414.2
2015-Jul-01 13:33N 35°34' E 139°49'5 4.5
2015-Jul-01 12:27N 35°38' E 139°46'0 0.0
2015-Jul-01 11:15N 35°38' E 139°46'0 0.0
2015-Jul-01 10:18N 35°38' E 139°46'0 0.0
2015-Jul-01 09:33N 35°38' E 139°46'0 0.0
2015-Jul-01 08:24N 35°38' E 139°46'0 0.6
2015-Jul-01 07:33N 35°37' E 139°46'1111.0
2015-Jul-01 06:33N 35°27' E 139°49'1211.9
2015-Jul-01 05:33N 35°15' E 139°47'1515.1
2015-Jul-01 04:33N 35°00' E 139°43'1413.5
2015-Jul-01 03:29N 34°50' E 139°56'1414.7
2015-Jul-01 02:32N 34°57' E 140°11'1715.4
2015-Jul-01 01:28N 35°06' E 140°28'1916.3
2015-Jul-01 00:18N 35°21' E 140°42'1817.5
2015-Jun-30 23:15N 35°36' E 140°55'1418.2
2015-Jun-30 22:28N 35°49' E 141°03'1818.6
2015-Jun-30 21:29N 36°06' E 141°08'  
2015-Jun-27 21:28N 35°50' E 141°04'1719.3
2015-Jun-27 20:33N 35°34' E 140°57'2019.6
2015-Jun-27 19:33N 35°19' E 140°42'2019.9
2015-Jun-27 18:33N 35°04' E 140°25'2019.7
2015-Jun-27 17:33N 34°53' E 140°05'1817.7
2015-Jun-27 16:33N 34°55' E 139°44'1818.2
2015-Jun-27 15:33N 35°13' E 139°46'1313.1
2015-Jun-27 14:34N 35°26' E 139°46'1111.4
2015-Jun-27 13:33N 35°38' E 139°46'0 0.1
2015-Jun-27 12:31N 35°38' E 139°46'0 0.0
2015-Jun-27 11:25N 35°38' E 139°46'0 0.0
2015-Jun-27 10:22N 35°38' E 139°46'0 0.0
2015-Jun-27 09:31N 35°38' E 139°46'0 0.4
2015-Jun-27 08:33N 35°37' E 139°46'1111.0
2015-Jun-27 07:33N 35°27' E 139°49'1212.0
2015-Jun-27 06:33N 35°15' E 139°47'1413.7
2015-Jun-27 05:33N 35°01' E 139°44'1514.1
2015-Jun-27 04:31N 34°51' E 139°56'1717.8
2015-Jun-27 03:34N 34°59' E 140°15'1817.4
2015-Jun-27 02:30N 35°11' E 140°32'1717.2
2015-Jun-27 01:29N 35°24' E 140°45'  
2015-Jun-24 21:27N 35°50' E 141°08'1718.8
2015-Jun-24 20:32N 35°35' E 140°58'  

Dump ship's entire track history